createdAt,value
2018-05-04T00:00:54.174Z,1.55
2018-05-04T00:01:59.708Z,1.12
2018-05-04T00:03:05.459Z,1.12
2018-05-04T00:04:11.214Z,1.48
2018-05-04T00:05:17.010Z,1.42
2018-05-04T00:06:23.534Z,1.20
2018-05-04T00:07:29.303Z,1.45
2018-05-04T00:08:35.055Z,1.77
2018-05-04T00:09:41.572Z,1.20
2018-05-04T00:10:47.355Z,1.20
2018-05-04T00:11:53.872Z,1.30
2018-05-04T00:12:59.627Z,1.30
2018-05-04T00:14:06.891Z,1.25
2018-05-04T00:15:12.647Z,1.40
2018-05-04T00:16:19.187Z,1.25
2018-05-04T00:17:24.940Z,1.50
2018-05-04T00:18:30.697Z,1.75
2018-05-04T00:19:37.224Z,1.42
2018-05-04T00:20:42.970Z,1.10
2018-05-04T00:21:48.747Z,1.50
2018-05-04T00:22:55.283Z,1.20
2018-05-04T00:24:01.050Z,1.50
2018-05-04T00:25:06.468Z,1.55
2018-05-04T00:26:11.986Z,1.62
2018-05-04T00:27:17.771Z,1.85
2018-05-04T00:28:24.348Z,1.40
2018-05-04T00:29:30.099Z,1.35
2018-05-04T00:30:35.867Z,1.95
2018-05-04T00:31:41.624Z,1.60
2018-05-04T00:32:47.403Z,1.50
2018-05-04T00:33:53.919Z,1.70
2018-05-04T00:34:59.680Z,1.80
2018-05-04T00:36:06.201Z,1.37
2018-05-04T00:37:11.970Z,1.80
2018-05-04T00:38:17.755Z,1.30
2018-05-04T00:39:23.525Z,1.62
2018-05-04T00:40:29.307Z,1.60
2018-05-04T00:41:36.568Z,1.55
2018-05-04T00:42:42.079Z,1.33
2018-05-04T00:43:47.859Z,1.30
2018-05-04T00:44:53.614Z,1.20
2018-05-04T00:46:00.142Z,1.67
2018-05-04T00:47:05.902Z,1.90
2018-05-04T00:48:12.429Z,1.62
2018-05-04T00:49:18.211Z,1.27
2018-05-04T00:50:23.979Z,1.33
2018-05-04T00:51:29.756Z,1.80
2018-05-04T00:52:35.772Z,1.20
2018-05-04T00:53:58.564Z,1.20
2018-05-04T00:55:04.343Z,1.60
2018-05-04T00:56:10.869Z,1.80
2018-05-04T00:57:16.636Z,1.77
2018-05-04T00:58:23.172Z,1.60
2018-05-04T00:59:28.923Z,1.60
2018-05-04T01:00:34.751Z,1.80
2018-05-04T01:01:40.507Z,1.45
2018-05-04T01:02:46.266Z,1.50
2018-05-04T01:03:52.795Z,1.45
2018-05-04T01:04:58.545Z,1.98
2018-05-04T01:06:05.503Z,1.62
2018-05-04T01:07:11.275Z,1.65
2018-05-04T01:08:17.032Z,1.55
2018-05-04T01:09:23.559Z,1.30
2018-05-04T01:10:29.334Z,1.40
2018-05-04T01:11:35.118Z,1.60
2018-05-04T01:12:40.911Z,1.80
2018-05-04T01:13:47.685Z,1.35
2018-05-04T01:14:54.213Z,1.12
2018-05-04T01:16:00.002Z,1.50
2018-05-04T01:17:05.804Z,1.65
2018-05-04T01:18:11.575Z,1.30
2018-05-04T01:19:17.725Z,1.48
2018-05-04T01:20:23.476Z,1.30
2018-05-04T01:21:29.230Z,1.60
2018-05-04T01:22:35.016Z,1.37
2018-05-04T01:23:40.796Z,1.30
2018-05-04T01:24:46.542Z,1.35
2018-05-04T01:25:52.297Z,1.20
2018-05-04T01:26:58.055Z,1.15
2018-05-04T01:28:03.855Z,1.55
2018-05-04T01:29:09.610Z,1.45
2018-05-04T01:30:15.060Z,1.30
2018-05-04T01:31:20.813Z,1.15
2018-05-04T01:32:26.571Z,1.27
2018-05-04T01:33:32.355Z,1.45
2018-05-04T01:34:38.114Z,1.60
2018-05-04T01:35:43.999Z,1.20
2018-05-04T01:36:49.794Z,1.30
2018-05-04T01:37:55.646Z,1.17
2018-05-04T01:39:01.482Z,1.10
2018-05-04T01:40:07.622Z,1.40
2018-05-04T01:41:13.379Z,1.70
2018-05-04T01:42:19.157Z,1.58
2018-05-04T01:43:24.924Z,1.15
2018-05-04T01:44:30.752Z,1.60
2018-05-04T01:45:36.513Z,1.33
2018-05-04T01:46:43.035Z,1.67
2018-05-04T01:47:49.288Z,1.17
2018-05-04T01:48:55.045Z,1.40
2018-05-04T01:50:00.841Z,1.50
2018-05-04T01:51:06.596Z,1.10
2018-05-04T01:52:12.347Z,1.15
2018-05-04T01:53:18.119Z,1.15
2018-05-04T01:54:23.886Z,1.40
2018-05-04T01:55:30.437Z,1.12
2018-05-04T01:56:36.961Z,1.20
2018-05-04T01:57:42.706Z,1.33
2018-05-04T01:58:48.472Z,1.40
2018-05-04T01:59:54.235Z,1.20
2018-05-04T02:01:00.791Z,1.80
2018-05-04T02:02:07.311Z,1.37
2018-05-04T02:03:13.075Z,1.67
2018-05-04T02:04:18.822Z,1.12
2018-05-04T02:05:25.114Z,1.40
2018-05-04T02:06:30.928Z,1.50
2018-05-04T02:07:37.463Z,1.30
2018-05-04T02:08:43.983Z,1.35
2018-05-04T02:09:49.511Z,1.30
2018-05-04T02:10:55.263Z,1.20
2018-05-04T02:12:01.099Z,1.40
2018-05-04T02:13:06.853Z,1.40
2018-05-04T02:14:12.610Z,1.87
2018-05-04T02:15:18.396Z,1.42
2018-05-04T02:16:24.910Z,1.02
2018-05-04T02:17:30.686Z,1.00
2018-05-04T02:18:37.207Z,1.10
2018-05-04T02:19:42.965Z,1.00
2018-05-04T02:20:48.727Z,1.08
2018-05-04T02:21:55.259Z,1.33
2018-05-04T02:23:01.056Z,1.00
2018-05-04T02:24:06.810Z,1.10
2018-05-04T02:25:12.371Z,1.20
2018-05-04T02:26:18.148Z,1.10
2018-05-04T02:27:23.899Z,1.10
2018-05-04T02:28:30.446Z,1.30
2018-05-04T02:29:36.663Z,1.17
2018-05-04T02:30:42.193Z,1.30
2018-05-04T02:31:47.956Z,1.20
2018-05-04T02:32:53.710Z,1.10
2018-05-04T02:33:59.488Z,1.30
2018-05-04T02:35:05.254Z,1.10
2018-05-04T02:36:11.064Z,1.10
2018-05-04T02:37:18.096Z,1.40
2018-05-04T02:38:23.866Z,1.40
2018-05-04T02:39:30.413Z,1.42
2018-05-04T02:40:36.182Z,1.23
2018-05-04T02:41:41.953Z,1.55
2018-05-04T02:42:47.913Z,1.20
2018-05-04T02:43:53.667Z,2.17
2018-05-04T02:44:59.754Z,1.35
2018-05-04T02:46:06.284Z,1.02
2018-05-04T02:47:13.348Z,1.40
2018-05-04T02:48:19.098Z,1.50
2018-05-04T02:49:24.854Z,1.27
2018-05-04T02:50:31.133Z,1.20
2018-05-04T02:51:36.911Z,1.50
2018-05-04T02:52:42.656Z,1.95
2018-05-04T02:53:48.410Z,1.45
2018-05-04T02:54:54.163Z,1.20
2018-05-04T02:55:59.956Z,1.37
2018-05-04T02:57:05.710Z,1.45
2018-05-04T02:58:11.517Z,1.20
2018-05-04T02:59:17.381Z,1.30
2018-05-04T03:00:23.139Z,1.30
2018-05-04T03:01:28.923Z,2.35
2018-05-04T03:02:34.904Z,1.40
2018-05-04T03:03:40.668Z,1.15
2018-05-04T03:04:46.538Z,1.92
2018-05-04T03:05:52.219Z,1.10
2018-05-04T03:06:58.763Z,1.60
2018-05-04T03:08:05.313Z,1.58
2018-05-04T03:09:11.091Z,1.20
2018-05-04T03:10:16.849Z,1.48
2018-05-04T03:11:22.599Z,1.52
2018-05-04T03:12:28.388Z,1.83
2018-05-04T03:13:34.155Z,1.27
2018-05-04T03:14:39.902Z,1.65
2018-05-04T03:15:45.676Z,1.80
2018-05-04T03:16:51.479Z,1.37
2018-05-04T03:17:58.032Z,1.95
2018-05-04T03:19:04.567Z,1.42
2018-05-04T03:20:10.347Z,1.20
2018-05-04T03:21:16.112Z,1.33
2018-05-04T03:22:21.887Z,1.40
2018-05-04T03:23:27.672Z,1.40
2018-05-04T03:24:33.440Z,1.55
2018-05-04T03:25:38.996Z,1.37
2018-05-04T03:26:44.748Z,2.15
2018-05-04T03:27:50.507Z,1.83
2018-05-04T03:28:57.047Z,1.42
2018-05-04T03:30:02.804Z,1.67
2018-05-04T03:31:09.443Z,2.40
2018-05-04T03:32:15.190Z,1.70
2018-05-04T03:33:22.461Z,1.80
2018-05-04T03:34:28.255Z,1.20
2018-05-04T03:35:34.009Z,1.75
2018-05-04T03:36:39.783Z,1.33
2018-05-04T03:37:45.539Z,2.00
2018-05-04T03:38:52.057Z,1.20
2018-05-04T03:39:57.843Z,1.60
2018-05-04T03:41:03.599Z,1.77
2018-05-04T03:42:10.120Z,1.30
2018-05-04T03:43:15.879Z,1.65
2018-05-04T03:44:21.635Z,1.80
2018-05-04T03:45:27.419Z,1.70
2018-05-04T03:46:32.937Z,1.55
2018-05-04T03:47:38.736Z,1.35
2018-05-04T03:48:44.495Z,1.98
2018-05-04T03:49:51.795Z,1.95
2018-05-04T03:50:58.568Z,2.28
2018-05-04T03:52:04.374Z,1.90
2018-05-04T03:53:10.310Z,1.80
2018-05-04T03:54:16.075Z,1.75
2018-05-04T03:55:21.838Z,1.20
2018-05-04T03:56:27.625Z,1.70
2018-05-04T03:57:50.335Z,1.80
2018-05-04T03:59:12.694Z,2.12
2018-05-04T04:00:35.207Z,1.65
2018-05-04T04:01:57.965Z,1.50
2018-05-04T04:03:20.818Z,1.50
2018-05-04T04:04:26.603Z,1.60
2018-05-04T04:05:32.367Z,1.60
2018-05-04T04:06:38.123Z,2.25
2018-05-04T04:07:43.911Z,1.67
2018-05-04T04:08:50.448Z,1.85
2018-05-04T04:09:56.443Z,1.70
2018-05-04T04:11:02.555Z,1.70
2018-05-04T04:12:08.323Z,1.40
2018-05-04T04:13:14.877Z,1.95
2018-05-04T04:14:21.399Z,1.85
2018-05-04T04:15:27.159Z,1.92
2018-05-04T04:16:32.951Z,2.22
2018-05-04T04:17:38.704Z,2.03
2018-05-04T04:18:44.578Z,1.70
2018-05-04T04:19:50.327Z,1.95
2018-05-04T04:20:56.848Z,2.50
2018-05-04T04:22:02.627Z,1.50
2018-05-04T04:23:09.151Z,1.55
2018-05-04T04:24:14.974Z,1.90
2018-05-04T04:25:20.731Z,2.45
2018-05-04T04:26:26.493Z,1.70
2018-05-04T04:27:32.272Z,2.67
2018-05-04T04:28:38.787Z,2.10
2018-05-04T04:29:44.570Z,1.70
2018-05-04T04:30:51.099Z,1.52
2018-05-04T04:31:57.238Z,2.80
2018-05-04T04:33:03.038Z,1.65
2018-05-04T04:34:09.148Z,2.40
2018-05-04T04:35:14.939Z,1.85
2018-05-04T04:36:20.468Z,2.17
2018-05-04T04:37:27.000Z,2.00
2018-05-04T04:38:32.775Z,2.10
2018-05-04T04:39:38.532Z,1.65
2018-05-04T04:40:44.311Z,2.95
2018-05-04T04:41:49.784Z,2.50
2018-05-04T04:42:56.310Z,1.62
2018-05-04T04:44:02.070Z,2.58
2018-05-04T04:45:08.603Z,2.90
2018-05-04T04:46:14.380Z,2.20
2018-05-04T04:47:20.899Z,1.62
2018-05-04T04:48:26.650Z,2.30
2018-05-04T04:49:32.426Z,2.17
2018-05-04T04:50:38.952Z,2.90
2018-05-04T04:51:44.831Z,2.55
2018-05-04T04:52:50.704Z,2.20
2018-05-04T04:53:56.459Z,2.00
2018-05-04T04:55:02.235Z,2.00
2018-05-04T04:56:09.508Z,2.28
2018-05-04T04:57:15.291Z,1.80
2018-05-04T04:58:21.052Z,2.53
2018-05-04T04:59:26.824Z,2.10
2018-05-04T05:00:32.589Z,2.15
2018-05-04T05:01:38.458Z,2.55
2018-05-04T05:02:45.036Z,2.58
2018-05-04T05:03:50.791Z,2.20
2018-05-04T05:04:56.543Z,2.58
2018-05-04T05:06:02.311Z,1.98
2018-05-04T05:07:09.578Z,1.60
2018-05-04T05:08:15.355Z,1.70
2018-05-04T05:09:21.977Z,2.30
2018-05-04T05:10:27.747Z,2.60
2018-05-04T05:11:34.637Z,2.37
2018-05-04T05:12:41.160Z,2.45
2018-05-04T05:13:46.938Z,2.25
2018-05-04T05:14:52.691Z,2.10
2018-05-04T05:15:58.457Z,2.20
2018-05-04T05:17:04.308Z,2.10
2018-05-04T05:18:10.072Z,2.05
2018-05-04T05:19:16.155Z,2.22
2018-05-04T05:20:21.911Z,2.65
2018-05-04T05:21:27.672Z,2.55
2018-05-04T05:22:34.630Z,2.80
2018-05-04T05:23:40.469Z,2.00
2018-05-04T05:24:46.716Z,2.10
2018-05-04T05:25:52.498Z,2.40
2018-05-04T05:26:58.245Z,2.22
2018-05-04T05:28:03.792Z,2.17
2018-05-04T05:29:09.543Z,2.30
2018-05-04T05:30:16.100Z,2.15
2018-05-04T05:31:22.176Z,2.40
2018-05-04T05:32:27.958Z,2.33
2018-05-04T05:33:33.722Z,2.25
2018-05-04T05:34:41.036Z,2.35
2018-05-04T05:35:47.974Z,3.25
2018-05-04T05:36:53.726Z,1.85
2018-05-04T05:38:00.275Z,2.12
2018-05-04T05:39:08.460Z,1.92
2018-05-04T05:40:14.221Z,2.03
2018-05-04T05:41:20.030Z,2.40
2018-05-04T05:42:26.158Z,2.15
2018-05-04T05:43:32.064Z,2.12
2018-05-04T05:44:38.584Z,2.90
2018-05-04T05:45:45.104Z,2.00
2018-05-04T05:46:50.891Z,2.45
2018-05-04T05:47:56.225Z,2.40
2018-05-04T05:49:01.972Z,2.22
2018-05-04T05:50:07.760Z,2.50
2018-05-04T05:51:13.524Z,2.22
2018-05-04T05:52:19.070Z,2.55
2018-05-04T05:53:25.511Z,3.83
2018-05-04T05:54:31.331Z,2.78
2018-05-04T05:55:37.267Z,2.78
2018-05-04T05:56:43.795Z,2.12
2018-05-04T05:57:49.574Z,2.17
2018-05-04T05:58:56.883Z,2.37
2018-05-04T06:00:02.662Z,2.40
2018-05-04T06:01:08.420Z,2.00
2018-05-04T06:02:14.175Z,2.22
2018-05-04T06:03:20.722Z,2.55
2018-05-04T06:04:26.475Z,2.30
2018-05-04T06:05:33.005Z,2.10
2018-05-04T06:06:38.772Z,2.28
2018-05-04T06:07:44.617Z,2.60
2018-05-04T06:08:51.175Z,2.50
2018-05-04T06:09:56.936Z,2.03
2018-05-04T06:11:03.048Z,2.90
2018-05-04T06:12:09.354Z,1.95
2018-05-04T06:13:15.127Z,2.70
2018-05-04T06:14:20.916Z,2.08
2018-05-04T06:15:27.443Z,2.37
2018-05-04T06:16:33.204Z,2.58
2018-05-04T06:17:39.932Z,2.50
2018-05-04T06:18:45.700Z,2.22
2018-05-04T06:19:51.580Z,4.07
2018-05-04T06:20:57.390Z,3.03
2018-05-04T06:22:03.153Z,2.20
2018-05-04T06:23:09.676Z,2.03
2018-05-04T06:24:15.235Z,2.20
2018-05-04T06:25:21.781Z,2.30
2018-05-04T06:26:27.542Z,2.58
2018-05-04T06:27:33.866Z,2.70
2018-05-04T06:28:39.640Z,2.70
2018-05-04T06:29:45.399Z,2.17
2018-05-04T06:30:51.181Z,2.15
2018-05-04T06:31:56.935Z,1.80
2018-05-04T06:33:02.705Z,2.60
2018-05-04T06:34:09.239Z,2.47
2018-05-04T06:35:15.037Z,2.10
2018-05-04T06:36:20.613Z,3.05
2018-05-04T06:37:26.371Z,2.53
2018-05-04T06:38:32.127Z,2.15
2018-05-04T06:39:38.868Z,2.12
2018-05-04T06:40:44.835Z,2.53
2018-05-04T06:41:51.384Z,2.20
2018-05-04T06:42:56.975Z,2.15
2018-05-04T06:44:02.795Z,2.67
2018-05-04T06:45:09.368Z,2.22
2018-05-04T06:46:15.252Z,2.95
2018-05-04T06:47:21.116Z,2.60
2018-05-04T06:48:27.875Z,2.20
2018-05-04T06:49:34.312Z,2.30
2018-05-04T06:50:40.381Z,2.20
2018-05-04T06:51:47.361Z,2.10
2018-05-04T06:52:54.071Z,2.95
2018-05-04T06:54:02.149Z,2.42
2018-05-04T06:55:08.116Z,2.33
2018-05-04T06:56:16.140Z,2.85
2018-05-04T06:57:22.781Z,2.00
2018-05-04T06:58:28.802Z,2.00
2018-05-04T06:59:34.647Z,2.83
2018-05-04T07:00:40.431Z,2.35
2018-05-04T07:01:46.198Z,2.47
2018-05-04T07:02:51.958Z,2.35
2018-05-04T07:03:58.650Z,2.28
2018-05-04T07:05:04.550Z,2.25
2018-05-04T07:06:11.237Z,2.10
2018-05-04T07:07:17.002Z,2.70
2018-05-04T07:08:22.930Z,2.08
2018-05-04T07:09:28.717Z,2.80
2018-05-04T07:10:34.463Z,2.25
2018-05-04T07:11:40.209Z,3.05
2018-05-04T07:12:45.963Z,2.58
2018-05-04T07:13:51.720Z,2.30
2018-05-04T07:14:58.316Z,3.00
2018-05-04T07:16:05.003Z,2.35
2018-05-04T07:17:10.775Z,2.55
2018-05-04T07:18:17.299Z,2.20
2018-05-04T07:19:23.055Z,1.98
2018-05-04T07:20:28.834Z,2.70
2018-05-04T07:21:35.387Z,2.40
2018-05-04T07:22:42.132Z,2.55
2018-05-04T07:23:47.892Z,2.25
2018-05-04T07:24:54.416Z,1.80
2018-05-04T07:26:00.239Z,1.50
2018-05-04T07:27:05.435Z,2.42
2018-05-04T07:28:11.198Z,3.15
2018-05-04T07:29:16.961Z,3.53
2018-05-04T07:30:22.727Z,3.30
2018-05-04T07:31:28.524Z,2.78
2018-05-04T07:32:34.339Z,3.08
2018-05-04T07:33:40.666Z,2.70
2018-05-04T07:34:46.440Z,2.33
2018-05-04T07:35:52.966Z,3.05
2018-05-04T07:36:58.751Z,3.00
2018-05-04T07:38:06.811Z,2.30
2018-05-04T07:39:12.572Z,2.53
2018-05-04T07:40:19.090Z,2.30
2018-05-04T07:41:24.847Z,2.78
2018-05-04T07:42:30.631Z,2.53
2018-05-04T07:43:36.402Z,2.42
2018-05-04T07:44:42.157Z,2.90
2018-05-04T07:45:47.925Z,2.45
2018-05-04T07:46:53.214Z,2.53
2018-05-04T07:47:59.026Z,2.50
2018-05-04T07:49:04.564Z,3.30
2018-05-04T07:50:10.327Z,2.17
2018-05-04T07:51:16.098Z,2.75
2018-05-04T07:52:22.166Z,2.60
2018-05-04T07:53:27.967Z,2.50
2018-05-04T07:54:35.978Z,2.40
2018-05-04T07:55:41.761Z,2.50
2018-05-04T07:56:48.641Z,2.25
2018-05-04T07:57:54.484Z,2.50
2018-05-04T07:59:00.806Z,2.60
2018-05-04T08:00:07.879Z,2.28
2018-05-04T08:01:13.674Z,2.58
2018-05-04T08:02:19.500Z,2.92
2018-05-04T08:03:25.259Z,2.20
2018-05-04T08:04:31.053Z,1.95
2018-05-04T08:05:36.804Z,2.17
2018-05-04T08:06:43.333Z,1.62
2018-05-04T08:07:49.091Z,1.37
2018-05-04T08:08:55.229Z,1.80
2018-05-04T08:10:01.004Z,1.83
2018-05-04T08:11:07.532Z,1.73
2018-05-04T08:12:13.317Z,1.70
2018-05-04T08:13:19.075Z,1.65
2018-05-04T08:14:24.820Z,1.70
2018-05-04T08:15:30.254Z,1.17
2018-05-04T08:16:35.675Z,1.50
2018-05-04T08:17:41.428Z,1.10
2018-05-04T08:18:47.170Z,1.35
2018-05-04T08:19:52.922Z,1.37
2018-05-04T08:20:58.695Z,1.80
2018-05-04T08:22:04.455Z,1.40
2018-05-04T08:23:10.973Z,1.48
2018-05-04T08:24:16.721Z,1.62
2018-05-04T08:25:22.476Z,1.55
2018-05-04T08:26:28.242Z,1.85
2018-05-04T08:27:34.544Z,1.62
2018-05-04T08:28:40.298Z,1.75
2018-05-04T08:29:46.058Z,2.55
2018-05-04T08:30:51.472Z,2.08
2018-05-04T08:31:57.267Z,1.75
2018-05-04T08:33:03.779Z,1.75
2018-05-04T08:34:09.536Z,2.75
2018-05-04T08:35:15.294Z,1.58
2018-05-04T08:36:21.239Z,1.15
2018-05-04T08:37:28.024Z,1.77
2018-05-04T08:38:33.771Z,2.05
2018-05-04T08:39:39.531Z,1.65
2018-05-04T08:40:45.357Z,1.85
2018-05-04T08:41:51.329Z,1.65
2018-05-04T08:42:57.142Z,1.70
2018-05-04T08:44:05.356Z,1.67
2018-05-04T08:45:11.118Z,1.40
2018-05-04T08:46:16.887Z,1.92
2018-05-04T08:47:22.649Z,2.10
2018-05-04T08:48:29.194Z,1.62
2018-05-04T08:49:34.945Z,1.70
2018-05-04T08:50:41.460Z,1.50
2018-05-04T08:51:47.207Z,1.90
2018-05-04T08:52:52.952Z,2.30
2018-05-04T08:53:58.729Z,1.80
2018-05-04T08:55:05.007Z,1.95
2018-05-04T08:56:10.765Z,1.87
2018-05-04T08:57:16.607Z,1.75
2018-05-04T08:58:22.513Z,1.67
2018-05-04T08:59:28.282Z,1.27
2018-05-04T09:00:34.044Z,1.37
2018-05-04T09:01:39.796Z,1.33
2018-05-04T09:02:45.547Z,1.80
2018-05-04T09:03:51.330Z,1.70
2018-05-04T09:04:57.872Z,2.05
2018-05-04T09:06:03.624Z,1.48
2018-05-04T09:07:10.139Z,1.55
2018-05-04T09:08:15.901Z,2.25
2018-05-04T09:09:21.651Z,2.05
2018-05-04T09:10:27.421Z,1.80
2018-05-04T09:11:33.939Z,1.70
2018-05-04T09:12:39.797Z,1.40
2018-05-04T09:13:46.481Z,1.95
2018-05-04T09:14:52.992Z,1.33
2018-05-04T09:15:58.779Z,1.40
2018-05-04T09:17:05.299Z,1.50
2018-05-04T09:18:11.056Z,1.67
2018-05-04T09:19:16.807Z,1.30
2018-05-04T09:20:22.555Z,2.00
2018-05-04T09:21:28.333Z,2.42
2018-05-04T09:22:34.076Z,2.03
2018-05-04T09:23:39.830Z,1.80
2018-05-04T09:24:45.588Z,2.15
2018-05-04T09:25:51.331Z,1.70
2018-05-04T09:26:57.106Z,1.50
2018-05-04T09:28:02.850Z,1.70
2018-05-04T09:29:09.372Z,1.40
2018-05-04T09:30:15.126Z,1.90
2018-05-04T09:31:21.647Z,1.65
2018-05-04T09:32:27.432Z,1.37
2018-05-04T09:33:33.191Z,1.90
2018-05-04T09:34:39.716Z,1.92
2018-05-04T09:35:45.687Z,1.48
2018-05-04T09:36:51.435Z,1.73
2018-05-04T09:37:57.635Z,1.70
2018-05-04T09:39:03.403Z,1.70
2018-05-04T09:40:09.167Z,1.67
2018-05-04T09:41:16.414Z,1.52
2018-05-04T09:42:22.159Z,1.33
2018-05-04T09:43:28.260Z,2.15
2018-05-04T09:44:34.464Z,1.70
2018-05-04T09:45:40.231Z,1.55
2018-05-04T09:46:45.980Z,1.70
2018-05-04T09:47:52.499Z,1.52
2018-05-04T09:48:58.286Z,2.00
2018-05-04T09:50:05.002Z,1.40
2018-05-04T09:51:10.763Z,1.40
2018-05-04T09:52:16.519Z,1.58
2018-05-04T09:53:22.259Z,1.73
2018-05-04T09:54:28.035Z,1.30
2018-05-04T09:55:33.798Z,2.65
2018-05-04T09:56:39.551Z,2.00
2018-05-04T09:57:45.309Z,1.83
2018-05-04T09:58:51.059Z,1.80
2018-05-04T09:59:56.853Z,1.42
2018-05-04T10:01:02.606Z,1.77
2018-05-04T10:02:08.376Z,1.85
2018-05-04T10:03:14.238Z,2.40
2018-05-04T10:04:20.009Z,1.65
2018-05-04T10:05:26.562Z,1.65
2018-05-04T10:06:33.080Z,2.10
2018-05-04T10:07:38.838Z,2.45
2018-05-04T10:08:44.600Z,2.10
2018-05-04T10:09:51.123Z,2.58
2018-05-04T10:10:56.914Z,2.65
2018-05-04T10:12:02.718Z,2.00
2018-05-04T10:13:08.483Z,2.03
2018-05-04T10:14:15.037Z,1.65
2018-05-04T10:15:21.559Z,2.17
2018-05-04T10:16:27.375Z,1.90
2018-05-04T10:17:33.135Z,2.12
2018-05-04T10:18:38.892Z,2.50
2018-05-04T10:19:45.122Z,2.30
2018-05-04T10:20:52.716Z,2.15
2018-05-04T10:21:58.622Z,2.53
2018-05-04T10:23:04.628Z,2.28
2018-05-04T10:24:10.517Z,2.40
2018-05-04T10:25:16.325Z,2.50
2018-05-04T10:26:22.242Z,2.37
2018-05-04T10:27:28.251Z,1.90
2018-05-04T10:28:34.039Z,2.45
2018-05-04T10:29:39.864Z,2.50
2018-05-04T10:30:45.760Z,2.30
2018-05-04T10:31:51.452Z,2.15
2018-05-04T10:32:57.280Z,2.30
2018-05-04T10:34:03.880Z,2.25
2018-05-04T10:35:09.702Z,2.00
2018-05-04T10:36:15.529Z,2.40
2018-05-04T10:37:22.106Z,2.22
2018-05-04T10:38:27.989Z,2.85
2018-05-04T10:39:33.970Z,2.35
2018-05-04T10:40:39.788Z,2.60
2018-05-04T10:41:45.588Z,2.62
2018-05-04T10:42:51.401Z,1.80
2018-05-04T10:43:57.946Z,1.62
2018-05-04T10:45:04.146Z,2.75
2018-05-04T10:46:10.087Z,2.25
2018-05-04T10:47:16.079Z,2.45
2018-05-04T10:48:22.282Z,2.30
2018-05-04T10:49:28.087Z,2.60
2018-05-04T10:50:34.372Z,1.70
2018-05-04T10:51:40.169Z,2.53
2018-05-04T10:52:45.932Z,2.15
2018-05-04T10:53:53.197Z,2.05
2018-05-04T10:54:58.979Z,1.98
2018-05-04T10:56:04.511Z,1.90
2018-05-04T10:57:10.038Z,1.98
2018-05-04T10:58:16.449Z,2.10
2018-05-04T10:59:22.320Z,2.67
2018-05-04T11:00:28.104Z,1.90
2018-05-04T11:01:34.093Z,1.83
2018-05-04T11:02:39.853Z,2.65
2018-05-04T11:03:45.627Z,1.90
2018-05-04T11:04:51.381Z,2.25
2018-05-04T11:05:57.177Z,2.25
2018-05-04T11:07:02.931Z,1.75
2018-05-04T11:08:09.529Z,1.58
2018-05-04T11:09:15.424Z,2.22
2018-05-04T11:10:21.346Z,2.22
2018-05-04T11:11:27.212Z,2.05
2018-05-04T11:12:32.847Z,1.98
2018-05-04T11:13:40.173Z,2.15
2018-05-04T11:14:45.919Z,1.30
2018-05-04T11:15:51.679Z,2.65
2018-05-04T11:16:57.708Z,1.87
2018-05-04T11:18:06.628Z,1.60
2018-05-04T11:19:12.456Z,2.05
2018-05-04T11:20:18.311Z,1.85
2018-05-04T11:21:24.317Z,1.65
2018-05-04T11:22:31.179Z,1.90
2018-05-04T11:23:37.406Z,2.37
2018-05-04T11:24:44.153Z,1.65
2018-05-04T11:25:50.138Z,2.12
2018-05-04T11:26:56.870Z,1.60
2018-05-04T11:28:03.102Z,1.50
2018-05-04T11:29:09.434Z,1.58
2018-05-04T11:30:15.911Z,1.65
2018-05-04T11:31:22.231Z,1.70
2018-05-04T11:32:28.535Z,1.75
2018-05-04T11:33:34.380Z,1.70
2018-05-04T11:34:40.244Z,1.62
2018-05-04T11:35:46.094Z,1.85
2018-05-04T11:36:51.976Z,1.98
2018-05-04T11:37:57.800Z,2.20
2018-05-04T11:39:03.480Z,1.60
2018-05-04T11:40:09.551Z,1.75
2018-05-04T11:41:15.397Z,2.00
2018-05-04T11:42:21.177Z,1.62
2018-05-04T11:43:27.592Z,1.50
2018-05-04T11:44:33.428Z,1.60
2018-05-04T11:45:39.286Z,1.73
2018-05-04T11:46:45.153Z,1.80
2018-05-04T11:47:52.593Z,1.67
2018-05-04T11:48:58.403Z,1.85
2018-05-04T11:50:04.711Z,1.58
2018-05-04T11:51:10.552Z,2.17
2018-05-04T11:52:18.206Z,1.85
2018-05-04T11:53:24.061Z,1.90
2018-05-04T11:54:29.886Z,1.77
2018-05-04T11:55:36.600Z,1.80
2018-05-04T11:56:42.372Z,1.77
2018-05-04T11:57:48.146Z,1.50
2018-05-04T11:58:53.952Z,1.80
2018-05-04T11:59:59.731Z,1.87
2018-05-04T12:01:05.884Z,2.40
2018-05-04T12:02:11.649Z,1.75
2018-05-04T12:03:17.558Z,1.95
2018-05-04T12:04:23.309Z,1.92
2018-05-04T12:05:29.084Z,1.77
2018-05-04T12:06:34.887Z,1.62
2018-05-04T12:07:40.639Z,3.10
2018-05-04T12:08:46.401Z,1.70
2018-05-04T12:09:52.167Z,1.55
2018-05-04T12:10:57.915Z,2.08
2018-05-04T12:12:03.713Z,1.55
2018-05-04T12:13:09.075Z,2.20
2018-05-04T12:14:14.871Z,2.30
2018-05-04T12:15:20.624Z,1.80
2018-05-04T12:16:26.372Z,2.08
2018-05-04T12:17:32.170Z,2.25
2018-05-04T12:18:38.702Z,2.25
2018-05-04T12:19:44.451Z,1.80
2018-05-04T12:20:50.220Z,2.05
2018-05-04T12:21:56.748Z,1.73
2018-05-04T12:23:03.304Z,2.08
2018-05-04T12:24:09.061Z,1.45
2018-05-04T12:25:14.825Z,1.87
2018-05-04T12:26:21.343Z,1.70
2018-05-04T12:27:27.109Z,1.90
2018-05-04T12:28:33.594Z,1.85
2018-05-04T12:29:39.355Z,1.65
2018-05-04T12:30:45.112Z,1.60
2018-05-04T12:31:50.543Z,2.05
2018-05-04T12:32:56.072Z,1.87
2018-05-04T12:34:01.881Z,1.80
2018-05-04T12:35:08.426Z,2.30
2018-05-04T12:36:14.947Z,1.62
2018-05-04T12:37:20.708Z,1.98
2018-05-04T12:38:26.303Z,2.03
2018-05-04T12:39:32.266Z,2.08
2018-05-04T12:40:38.030Z,1.48
2018-05-04T12:41:44.563Z,2.03
2018-05-04T12:42:50.377Z,1.85
2018-05-04T12:43:56.146Z,2.10
2018-05-04T12:45:01.930Z,2.00
2018-05-04T12:46:07.119Z,1.92
2018-05-04T12:47:12.912Z,1.45
2018-05-04T12:48:19.483Z,1.73
2018-05-04T12:49:25.247Z,1.65
2018-05-04T12:50:31.043Z,1.73
2018-05-04T12:51:36.795Z,1.58
2018-05-04T12:52:43.424Z,1.70
2018-05-04T12:53:49.286Z,1.75
2018-05-04T12:54:55.940Z,1.90
2018-05-04T12:56:01.742Z,1.65
2018-05-04T12:57:07.541Z,1.92
2018-05-04T12:58:13.312Z,2.55
2018-05-04T12:59:19.857Z,2.17
2018-05-04T13:00:26.152Z,1.85
2018-05-04T13:01:31.767Z,1.92
2018-05-04T13:02:37.524Z,1.60
2018-05-04T13:03:43.284Z,1.80
2018-05-04T13:04:49.035Z,1.77
2018-05-04T13:05:54.802Z,1.42
2018-05-04T13:07:00.604Z,1.70
2018-05-04T13:08:06.367Z,1.70
2018-05-04T13:09:12.131Z,2.00
2018-05-04T13:10:18.048Z,1.70
2018-05-04T13:11:23.844Z,2.22
2018-05-04T13:12:30.679Z,2.00
2018-05-04T13:13:37.048Z,2.00
2018-05-04T13:14:43.568Z,1.73
2018-05-04T13:15:49.343Z,1.80
2018-05-04T13:16:55.100Z,1.70
2018-05-04T13:18:01.454Z,2.03
2018-05-04T13:19:08.055Z,2.42
2018-05-04T13:20:13.829Z,1.55
2018-05-04T13:21:19.587Z,1.80
2018-05-04T13:22:25.336Z,2.10
2018-05-04T13:23:31.891Z,1.90
2018-05-04T13:24:38.652Z,1.60
2018-05-04T13:25:45.911Z,2.03
2018-05-04T13:26:51.677Z,2.20
2018-05-04T13:27:58.203Z,2.10
2018-05-04T13:29:03.991Z,2.60
2018-05-04T13:30:10.527Z,2.30
2018-05-04T13:31:16.290Z,2.17
2018-05-04T13:32:22.049Z,1.73
2018-05-04T13:33:27.854Z,2.22
2018-05-04T13:34:33.804Z,1.52
2018-05-04T13:35:39.570Z,2.25
2018-05-04T13:36:45.327Z,1.60
2018-05-04T13:37:51.115Z,1.62
2018-05-04T13:38:57.320Z,2.20
2018-05-04T13:40:03.125Z,1.65
2018-05-04T13:41:08.935Z,2.53
2018-05-04T13:42:14.710Z,2.67
2018-05-04T13:43:21.031Z,1.90
2018-05-04T13:44:26.856Z,1.55
2018-05-04T13:45:33.116Z,1.70
2018-05-04T13:46:40.064Z,1.90
2018-05-04T13:47:46.309Z,2.50
2018-05-04T13:48:53.063Z,1.80
2018-05-04T13:49:59.260Z,1.92
2018-05-04T13:51:05.165Z,1.85
2018-05-04T13:52:10.964Z,2.08
2018-05-04T13:53:16.748Z,2.22
2018-05-04T13:54:22.653Z,2.50
2018-05-04T13:55:29.259Z,2.35
2018-05-04T13:56:36.925Z,2.10
2018-05-04T13:57:43.683Z,2.37
2018-05-04T13:58:49.466Z,2.75
2018-05-04T13:59:55.466Z,1.95
2018-05-04T14:01:02.278Z,2.22
2018-05-04T14:02:08.052Z,2.58
2018-05-04T14:03:14.043Z,2.03
2018-05-04T14:04:20.914Z,2.15
2018-05-04T14:05:26.971Z,2.42
2018-05-04T14:06:32.789Z,2.00
2018-05-04T14:07:40.711Z,2.50
2018-05-04T14:08:46.773Z,2.60
2018-05-04T14:09:54.723Z,1.50
2018-05-04T14:11:01.661Z,1.95
2018-05-04T14:12:08.270Z,1.80
2018-05-04T14:13:14.984Z,2.37
2018-05-04T14:14:22.094Z,2.00
2018-05-04T14:15:28.197Z,2.25
2018-05-04T14:16:36.054Z,2.10
2018-05-04T14:17:43.209Z,2.20
2018-05-04T14:18:50.680Z,1.92
2018-05-04T14:19:59.300Z,1.42
2018-05-04T14:21:08.045Z,2.15
2018-05-04T14:22:15.841Z,2.00
2018-05-04T14:23:21.972Z,1.80
2018-05-04T14:24:28.396Z,2.05
2018-05-04T14:25:35.002Z,1.70
2018-05-04T14:26:42.274Z,1.90
2018-05-04T14:27:48.248Z,1.87
2018-05-04T14:28:56.118Z,1.73
2018-05-04T14:30:02.461Z,1.70
2018-05-04T14:31:10.320Z,1.45
2018-05-04T14:32:16.750Z,1.58
2018-05-04T14:33:24.105Z,2.60
2018-05-04T14:34:31.642Z,1.73
2018-05-04T14:35:38.697Z,1.70
2018-05-04T14:36:44.631Z,1.75
2018-05-04T14:37:51.225Z,1.65
2018-05-04T14:38:57.855Z,1.67
2018-05-04T14:40:03.966Z,1.70
2018-05-04T14:41:10.796Z,1.33